IW4EMA-3 Malborghetto di boara IT current weather conditions

sailwx.info

Wind at 2 knots gusting 2

Air temperature 19.4° C
Dewpoint -2.2° C

Last reported at 2020-Feb-28 13:56 UTC.
Time now 2020-Feb-28 14:28 UTC

Location: N 44°52' E 011°39'.
View on Google Maps.

See reports from other nearby stations

  
Tides and Currents Weather Stations Pressure Air Temp Water Temp Dewpoint Dewpoint Depression Visibility Wind Speed Wind Dir Waves Ship Positions
date/time (UTC)wind fromknots sea level pressurealtimeterstation pressurevisibilityair tempwater tempwave heightnotes
2020-Feb-28 14:06 315 0 gusting 0 17.8
2020-Feb-28 13:56 19.4
2020-Feb-28 13:46 19.4
2020-Feb-28 13:35 315 0 gusting 0 19.4
2020-Feb-28 13:25 18.9
2020-Feb-28 13:15 337 1 gusting 1 18.3
2020-Feb-28 13:05 037 2 gusting 3 18.3
2020-Feb-28 12:54 292 2 gusting 2 19.4
2020-Feb-28 12:44 315 3 gusting 3 20.0
2020-Feb-28 12:34 336 5 gusting 6 20.0
2020-Feb-28 12:24 337 2 gusting 2 18.3
2020-Feb-28 12:13 045 3 gusting 3 18.9
2020-Feb-28 12:03 337 5 gusting 5 18.9
2020-Feb-28 11:53 337 3 gusting 3 18.9
2020-Feb-28 11:43 19.4
2020-Feb-28 11:32 315 4 gusting 4 19.4
2020-Feb-28 11:22 348 5 gusting 5 19.4
2020-Feb-28 11:12 022 4 gusting 4 18.9
2020-Feb-28 11:02 022 5 gusting 5 18.9
2020-Feb-28 10:52 18.9
2020-Feb-28 10:41 18.3
2020-Feb-28 10:31 17.8
2020-Feb-28 10:21 337 6 gusting 6 18.3
2020-Feb-28 10:11 18.9
2020-Feb-28 10:00 337 5 gusting 5 18.9
2020-Feb-28 09:50 337 2 gusting 2 19.4
2020-Feb-28 09:40 337 2 gusting 2 18.9
2020-Feb-28 09:30 315 7 gusting 7 18.3
2020-Feb-28 09:24 315 3 gusting 3 18.3
2020-Feb-28 09:14 315 6 gusting 6 17.2
2020-Feb-28 09:04 315 5 gusting 5 17.8
2020-Feb-28 08:54 337 5 gusting 5 16.7
2020-Feb-28 08:43 292 4 gusting 4 15.6
2020-Feb-28 08:33 315 5 gusting 6 15.0
2020-Feb-28 08:23 13.9
2020-Feb-28 08:13 315 8 gusting 8 12.8
2020-Feb-28 08:02 337 6 gusting 6 12.2
2020-Feb-28 07:52 337 7 gusting 7 12.2
2020-Feb-28 07:42 337 4 gusting 4 11.7
2020-Feb-28 07:32 347 1 gusting 2 10.6
2020-Feb-28 07:21 337 1 gusting 1 9.4
2020-Feb-28 07:11 347 0 gusting 0 8.3
2020-Feb-28 07:01 7.2
2020-Feb-28 06:51 315 1 gusting 1 6.1
2020-Feb-28 06:40 337 2 gusting 2 5.0
2020-Feb-28 06:30 337 1 gusting 1 3.9
2020-Feb-28 06:20 349 1 gusting 1 2.8
2020-Feb-28 06:15 315 1 gusting 1 2.2
2020-Feb-28 06:04 315 0 gusting 0 1.7
2020-Feb-28 05:54 315 2 gusting 2 1.7
2020-Feb-28 05:44 315 1 gusting 1 1.7
2020-Feb-28 05:34 1.7
2020-Feb-28 05:23 2.2
2020-Feb-28 05:13 315 1 gusting 1 2.2
2020-Feb-28 05:03 337 2 gusting 2 2.8
2020-Feb-28 04:53 292 3 gusting 3 2.8
2020-Feb-28 04:42 315 5 gusting 5 3.3
2020-Feb-28 04:32 304 5 gusting 5 3.3
2020-Feb-28 04:22 337 5 gusting 5 3.3
2020-Feb-28 04:11 328 3 gusting 4 3.9
2020-Feb-28 04:01 292 4 gusting 4 3.9
2020-Feb-28 03:51 337 6 gusting 6 3.9
2020-Feb-28 03:40 318 6 gusting 6 3.9
2020-Feb-28 03:30 292 4 gusting 4 4.4
2020-Feb-28 03:20 315 6 gusting 6 5.0
2020-Feb-28 03:14 337 6 gusting 6 5.0
2020-Feb-28 03:04 337 12 gusting 12 5.6
2020-Feb-28 02:54 292 5 gusting 5 5.6
2020-Feb-28 02:44 315 6 gusting 6 5.6
2020-Feb-28 02:33 315 6 gusting 6 5.6
2020-Feb-28 02:23 315 3 gusting 3 5.6
2020-Feb-28 02:13 283 2 gusting 3 5.6
2020-Feb-28 02:03 292 0 gusting 0 5.6
2020-Feb-28 01:52 247 10 gusting 10 5.6
2020-Feb-28 01:42 292 3 gusting 3 6.1
2020-Feb-28 01:32 292 2 gusting 2 6.1
2020-Feb-28 01:22 270 3 gusting 3 6.7
2020-Feb-28 01:11 292 2 gusting 2 6.7
2020-Feb-28 01:01 315 6 gusting 6 7.2
2020-Feb-28 00:51 292 2 gusting 2 7.2
2020-Feb-28 00:41 292 0 gusting 0 7.8
2020-Feb-28 00:30 7.8
2020-Feb-28 00:20 292 3 gusting 3 8.3
2020-Feb-28 00:10 292 3 gusting 3 8.3
2020-Feb-28 00:00 292 2 gusting 2 8.9
2020-Feb-27 23:50 292 1 gusting 1 8.9
2020-Feb-27 23:39 292 2 gusting 2 9.4
2020-Feb-27 23:29 292 1 gusting 1 9.4
2020-Feb-27 23:19 337 3 gusting 5 8.9
2020-Feb-27 23:09 328 3 gusting 4 8.9
2020-Feb-27 22:58 315 0 gusting 0 8.9
2020-Feb-27 22:48 315 0 gusting 0 8.9
2020-Feb-27 22:38 8.9
2020-Feb-27 22:28 8.9
2020-Feb-27 22:17 8.9
2020-Feb-27 22:07 8.9
2020-Feb-27 21:57 9.4
2020-Feb-27 21:47 9.4
2020-Feb-27 21:36 191 0 gusting 0 9.4
2020-Feb-27 21:26 225 2 gusting 2 9.4
2020-Feb-27 21:16 180 1 gusting 1 9.4
2020-Feb-27 21:06 180 2 gusting 2 9.4
2020-Feb-27 20:55 180 2 gusting 2 9.4
2020-Feb-27 20:45 193 2 gusting 3 9.4
2020-Feb-27 20:35 180 3 gusting 3 9.4
2020-Feb-27 20:25 180 1 gusting 1 9.4
2020-Feb-27 20:20 180 0 gusting 0 9.4
2020-Feb-27 20:09 9.4
2020-Feb-27 19:59 202 0 gusting 0 9.4
2020-Feb-27 19:49 180 0 gusting 0 9.4
2020-Feb-27 19:38 202 1 gusting 1 10.0
2020-Feb-27 19:28 169 1 gusting 1 10.0
2020-Feb-27 19:18 180 1 gusting 1 10.0
2020-Feb-27 19:08 10.0
2020-Feb-27 18:57 10.0
2020-Feb-27 18:47 180 0 gusting 0 10.0
2020-Feb-27 18:37 10.0
2020-Feb-27 18:27 180 0 gusting 0 10.0
2020-Feb-27 18:17 10.0
2020-Feb-27 18:06 10.6
2020-Feb-27 17:56 10.6
2020-Feb-27 17:46 10.6
2020-Feb-27 17:36 10.6
2020-Feb-27 17:25 11.1
2020-Feb-27 17:15 11.7
2020-Feb-27 17:05 337 1 gusting 1 11.7
2020-Feb-27 16:55 247 3 gusting 3 12.2
2020-Feb-27 16:45 247 10 gusting 10 12.2
2020-Feb-27 16:39 247 6 gusting 6 12.2
2020-Feb-27 16:29 247 10 gusting 10 12.2
2020-Feb-27 16:19 247 7 gusting 7 12.8
2020-Feb-27 16:09 247 6 gusting 6 12.8
2020-Feb-27 15:59 247 8 gusting 9 12.8
2020-Feb-27 15:48 225 6 gusting 6 12.8
2020-Feb-27 15:38 225 10 gusting 10 12.8
2020-Feb-27 15:28 202 9 gusting 9 12.8
2020-Feb-27 15:17 225 15 gusting 15 12.8
2020-Feb-27 15:07 225 15 gusting 15 13.3
2020-Feb-27 14:57 202 6 gusting 6 13.3
2020-Feb-27 14:47 180 7 gusting 7 13.3
2020-Feb-27 14:36 180 13 gusting 13 13.3
2020-Feb-27 14:26 180 3 gusting 3 13.3
2020-Feb-27 14:16 157 5 gusting 5 13.3
2020-Feb-27 14:06 180 3 gusting 3 13.3
2020-Feb-27 13:55 157 1 gusting 1 13.3
2020-Feb-27 13:45 112 2 gusting 2 13.9
2020-Feb-27 13:35 247 6 gusting 6 13.9
2020-Feb-27 13:25 112 3 gusting 3 14.4
2020-Feb-27 13:15 180 1 gusting 1 13.9
2020-Feb-27 13:09 180 5 gusting 5 13.9
2020-Feb-27 12:59 180 5 gusting 5 13.9
2020-Feb-27 12:49 202 1 gusting 1 13.3
2020-Feb-27 12:39 202 6 gusting 6 13.9
2020-Feb-27 12:28 264 2 gusting 4 13.9
2020-Feb-27 12:18 247 0 gusting 0 15.6
2020-Feb-27 12:08 270 3 gusting 3 17.8
2020-Feb-27 11:58 18.9
2020-Feb-27 11:47 18.9
2020-Feb-27 11:37 315 0 gusting 0 18.3
2020-Feb-27 11:27 18.9
2020-Feb-27 11:17 315 2 gusting 2 18.3
2020-Feb-27 11:07 350 3 gusting 3 19.4
2020-Feb-27 10:56 337 2 gusting 2 19.4
2020-Feb-27 10:46 292 1 gusting 1 20.0
2020-Feb-27 10:36 327 2 gusting 2 18.9
2020-Feb-27 10:26 315 5 gusting 5 18.9
2020-Feb-27 10:15 18.3
2020-Feb-27 10:05 315 3 gusting 3 17.8
2020-Feb-27 09:55 337 4 gusting 5 16.7
2020-Feb-27 09:45 292 4 gusting 4 15.6
2020-Feb-27 09:34 315 6 gusting 6 15.6
2020-Feb-27 09:24 315 7 gusting 7 15.6
2020-Feb-27 09:14 337 3 gusting 3 14.4
2020-Feb-27 09:04 315 6 gusting 7 13.9
2020-Feb-27 08:53 315 2 gusting 2 13.3
2020-Feb-27 08:43 327 4 gusting 4 12.8
2020-Feb-27 08:33 315 5 gusting 5 12.2
2020-Feb-27 08:23 315 2 gusting 2 11.7
2020-Feb-27 08:12 315 3 gusting 3 11.1
2020-Feb-27 08:02 315 1 gusting 1 11.1
2020-Feb-27 07:52 315 1 gusting 1 10.0
2020-Feb-27 07:42 292 2 gusting 2 8.9
2020-Feb-27 07:31 316 2 gusting 2 8.3
2020-Feb-27 07:21 292 2 gusting 2 7.8
2020-Feb-27 07:11 270 0 gusting 0 6.7
2020-Feb-27 07:01 292 2 gusting 2 5.6
2020-Feb-27 06:50 292 0 gusting 0 4.4
2020-Feb-27 06:40 281 2 gusting 2 3.3
2020-Feb-27 06:30 292 1 gusting 2 2.2
2020-Feb-27 06:25 1.7
2020-Feb-27 06:14 1.1
2020-Feb-27 06:04 292 0 gusting 0 0.6
2020-Feb-27 05:54 270 1 gusting 1 0.6
2020-Feb-27 05:44 292 1 gusting 1 0.6
2020-Feb-27 05:33 315 1 gusting 1 0.6
2020-Feb-27 05:23 315 1 gusting 1 0.6
2020-Feb-27 05:13 315 1 gusting 1 0.6
2020-Feb-27 05:03 292 2 gusting 2 0.6
2020-Feb-27 04:52 292 2 gusting 2 0.6
2020-Feb-27 04:42 292 1 gusting 1 0.6
2020-Feb-27 04:32 0.6
2020-Feb-27 04:22 315 0 gusting 0 0.6
2020-Feb-27 04:11 315 1 gusting 1 0.6
2020-Feb-27 04:01 303 1 gusting 1 -0.0
2020-Feb-27 03:51 337 1 gusting 1 -0.0
2020-Feb-27 03:41 315 0 gusting 0 -0.0
2020-Feb-27 03:30 0.6
2020-Feb-27 03:20 292 0 gusting 0 0.6
2020-Feb-27 03:10 292 0 gusting 0 0.6
2020-Feb-27 03:00 337 1 gusting 1 1.1
2020-Feb-27 02:49 292 0 gusting 0 1.1
2020-Feb-27 02:39 292 1 gusting 1 1.7
2020-Feb-27 02:29 292 0 gusting 0 1.7
2020-Feb-27 02:19 1.7
2020-Feb-27 02:08 2.2
2020-Feb-27 01:58 315 2.8
2020-Feb-27 01:48 3.3
2020-Feb-27 01:38 270 0 gusting 0 3.9
2020-Feb-27 01:28 247 1 gusting 1 3.9
2020-Feb-27 01:17 225 1 gusting 1 3.3
2020-Feb-27 01:07 225 3.3
2020-Feb-27 00:57 3.9
2020-Feb-27 00:47 270 4.4
2020-Feb-27 00:36 247 1 gusting 1 3.9
2020-Feb-27 00:26 247 0 gusting 0 3.9
2020-Feb-27 00:16 157 0 gusting 0 4.4
2020-Feb-27 00:06 225 3 gusting 3 5.0
2020-Feb-26 23:55 5.0
2020-Feb-26 23:45 5.6
2020-Feb-26 23:35 5.6
2020-Feb-26 23:25 6.1
2020-Feb-26 23:20 6.7
2020-Feb-26 23:09 6.1
2020-Feb-26 22:59 6.1
2020-Feb-26 22:49 6.7
2020-Feb-26 22:39 6.7
2020-Feb-26 22:28 315 0 gusting 0 6.7
2020-Feb-26 22:18 315 0 gusting 0 7.2
2020-Feb-26 22:08 315 2 gusting 2 7.8
2020-Feb-26 21:58 247 4 gusting 4 7.8
2020-Feb-26 21:48 292 1 gusting 1 7.8
2020-Feb-26 21:37 7.8
2020-Feb-26 21:27 7.8
2020-Feb-26 21:17 292 8.3
2020-Feb-26 21:07 8.9
2020-Feb-26 20:56 8.9
2020-Feb-26 20:46 045 8.9
2020-Feb-26 20:36 112 6 gusting 6 8.9
2020-Feb-26 20:26 067 7 gusting 9 9.4
2020-Feb-26 20:15 067 6 gusting 6 9.4
2020-Feb-26 20:05 079 11 gusting 11 9.4
2020-Feb-26 19:55 067 6 gusting 6 9.4
2020-Feb-26 19:50 045 7 gusting 7 8.9
2020-Feb-26 19:39 045 4 gusting 4 8.9
2020-Feb-26 19:29 022 3 gusting 3 8.9
2020-Feb-26 19:19 022 2 gusting 2 8.9
2020-Feb-26 19:09 022 7 gusting 7 8.9
2020-Feb-26 18:58 022 6 gusting 6 8.9
2020-Feb-26 18:48 337 4 gusting 4 8.3
2020-Feb-26 18:38 337 5 gusting 5 7.8
2020-Feb-26 18:28 292 1 gusting 1 7.8
2020-Feb-26 18:17 292 1 gusting 1 7.8
2020-Feb-26 18:07 292 2 gusting 2 8.3
2020-Feb-26 17:57 292 1 gusting 1 8.3
2020-Feb-26 17:47 270 8.3
2020-Feb-26 17:36 315 3 gusting 3 8.9
2020-Feb-26 17:26 292 6 gusting 8 9.4
2020-Feb-26 17:16 270 3 gusting 3 9.4
2020-Feb-26 17:06 292 0 gusting 0 9.4
2020-Feb-26 16:55 270 3 gusting 3 9.4
2020-Feb-26 16:45 257 7 gusting 8 9.4
2020-Feb-26 16:35 202 8 gusting 8 9.4
2020-Feb-26 16:25 247 5 gusting 6 9.4
2020-Feb-26 16:20 247 9 gusting 9 10.0
2020-Feb-26 16:09 247 1 gusting 1 10.6
2020-Feb-26 15:59 230 2 gusting 4 10.6
2020-Feb-26 15:49 270 9 gusting 9 11.1
2020-Feb-26 15:39 247 11 gusting 11 11.1
2020-Feb-26 15:28 270 4 gusting 4 11.7
2020-Feb-26 15:18 337 4 gusting 4 12.2
2020-Feb-26 15:08 251 2 gusting 5 12.2
2020-Feb-26 14:58 270 2 gusting 2 13.3
2020-Feb-26 14:47 292 5 gusting 5 14.4
2020-Feb-26 14:37 292 6 gusting 6 15.0
2020-Feb-26 14:27 315 4 gusting 4 15.0
2020-Feb-26 14:17 292 4 gusting 5 15.6
2020-Feb-26 14:06 337 7 gusting 7 15.6